Time;durP1;ratioP1;P1;durP2;ratioP2;P2;SDS_P1;SDS_P2;PMS_P1;PMS_P2;Temp;Humidity;BMP_temperature;BMP_pressure;BME280_temperature;BME280_humidity;BME280_pressure;Samples;Min_cycle;Max_cycle;Signal;HPM_P1;HPM_P2
2024/01/25 00:00:04;;;;;;;32.67;5.82;;;6.10;99.90;;;;;;6218485;28;20061;-83
2024/01/25 00:03:05;;;;;;;31.98;5.13;;;6.20;99.90;;;;;;6243674;28;20061;-83
2024/01/25 00:06:07;;;;;;;30.00;5.22;;;6.20;99.90;;;;;;6220161;28;20049;-83
2024/01/25 00:09:09;;;;;;;27.92;4.82;;;6.20;99.90;;;;;;6243339;28;20060;-84
2024/01/25 00:12:11;;;;;;;37.17;5.68;;;6.10;99.90;;;;;;6219772;28;20509;-85
2024/01/25 00:15:12;;;;;;;30.02;5.63;;;6.10;99.90;;;;;;6241438;28;20056;-83
2024/01/25 00:18:14;;;;;;;33.22;5.63;;;6.00;99.90;;;;;;6219656;28;20042;-84
2024/01/25 00:21:16;;;;;;;31.27;5.40;;;6.00;99.90;;;;;;6229259;28;20639;-84
2024/01/25 00:24:17;;;;;;;32.38;5.20;;;5.90;99.90;;;;;;6242142;28;20045;-84
2024/01/25 00:27:19;;;;;;;33.80;5.85;;;6.00;99.90;;;;;;6219322;28;20057;-84
2024/01/25 00:30:21;;;;;;;23.17;4.53;;;6.00;99.90;;;;;;6236963;28;20050;-84
2024/01/25 00:33:22;;;;;;;30.23;4.90;;;5.90;99.90;;;;;;6198447;28;20072;-84
2024/01/25 00:36:24;;;;;;;36.60;5.80;;;5.90;99.90;;;;;;6241615;28;20493;-84
2024/01/25 00:39:25;;;;;;;28.90;4.93;;;5.90;99.90;;;;;;6219604;28;20407;-83
2024/01/25 00:42:27;;;;;;;32.25;4.80;;;6.00;99.90;;;;;;6241803;28;20138;-84
2024/01/25 00:45:29;;;;;;;34.45;5.72;;;6.00;99.90;;;;;;6216837;28;20493;-83
2024/01/25 00:48:30;;;;;;;37.53;5.80;;;5.90;99.90;;;;;;6209634;28;20061;-83
2024/01/25 00:51:32;;;;;;;32.22;4.63;;;5.90;99.90;;;;;;6257584;28;20057;-82
2024/01/25 00:54:34;;;;;;;40.25;6.15;;;5.80;99.90;;;;;;6217942;28;20053;-82
2024/01/25 00:57:36;;;;;;;32.60;5.80;;;5.80;99.90;;;;;;6240165;28;20525;-82
2024/01/25 01:00:38;;;;;;;31.45;5.22;;;;;;;;;;6218116;28;20054;-83
2024/01/25 01:03:40;;;;;;;28.73;4.93;;;;;;;;;;6204024;28;20054;-83
2024/01/25 01:06:42;;;;;;;31.13;5.57;;;;;;;;;;6242814;28;20064;-82
2024/01/25 01:09:45;;;;;;;31.25;5.22;;;5.70;99.90;;;;;;6219350;28;20859;-82
2024/01/25 01:12:47;;;;;;;38.67;6.10;;;6.80;99.90;;;;;;6220675;28;20052;-84
2024/01/25 01:15:50;;;;;;;30.92;4.95;;;5.60;99.90;;;;;;6241304;28;20144;-83
2024/01/25 01:18:51;;;;;;;36.58;5.80;;;5.60;99.90;;;;;;6197099;28;20053;-83
2024/01/25 01:21:53;;;;;;;27.70;4.75;;;5.60;99.90;;;;;;6227148;28;20049;-83
2024/01/25 01:24:55;;;;;;;33.33;6.30;;;5.50;99.90;;;;;;6245944;28;20049;-83
2024/01/25 01:27:57;;;;;;;32.60;4.97;;;5.30;99.90;;;;;;6227128;28;20526;-82
2024/01/25 01:30:58;;;;;;;30.00;5.28;;;5.20;99.90;;;;;;6228498;28;20049;-82
2024/01/25 01:34:00;;;;;;;30.17;4.43;;;5.20;99.90;;;;;;6247013;28;20192;-82
2024/01/25 01:37:02;;;;;;;26.02;3.95;;;5.40;99.90;;;;;;6223380;28;20101;-81
2024/01/25 01:40:04;;;;;;;30.02;5.03;;;5.10;99.90;;;;;;6233969;28;20081;-83
2024/01/25 01:43:05;;;;;;;23.15;4.78;;;5.00;99.90;;;;;;6236364;28;20441;-82
2024/01/25 01:46:07;;;;;;;21.20;4.38;;;5.00;99.90;;;;;;6222443;28;20691;-82
2024/01/25 01:49:09;;;;;;;32.00;6.05;;;4.80;99.90;;;;;;6242573;28;20080;-83
2024/01/25 01:52:11;;;;;;;20.20;4.78;;;4.90;99.90;;;;;;6246608;28;20073;-84
2024/01/25 01:55:14;;;;;;;34.00;5.38;;;;;;;;;;6223227;28;20493;-84
2024/01/25 01:58:16;;;;;;;27.50;4.53;;;;;;;;;;6237595;28;20050;-83
2024/01/25 02:01:18;;;;;;;31.90;4.97;;;;;;;;;;6231177;28;20077;-83
2024/01/25 02:04:21;;;;;;;25.77;4.60;;;;;;;;;;6223923;28;20064;-83
2024/01/25 02:07:23;;;;;;;26.83;4.28;;;;;;;;;;6246692;28;20057;-83
2024/01/25 02:10:25;;;;;;;28.20;4.05;;;;;;;;;;6223312;28;20069;-82
2024/01/25 02:13:27;;;;;;;27.30;4.32;;;;;;;;;;6232137;28;20053;-82
2024/01/25 02:16:30;;;;;;;33.97;5.03;;;;;;;;;;6222078;28;20050;-82
2024/01/25 02:19:32;;;;;;;31.77;4.72;;;;;;;;;;6244504;28;20115;-83
2024/01/25 02:22:34;;;;;;;29.80;5.00;;;;;;;;;;6222832;28;20054;-83
2024/01/25 02:25:37;;;;;;;23.63;3.97;;;;;;;;;;6223085;28;20489;-84
2024/01/25 02:28:39;;;;;;;34.75;4.93;;;;;;;;;;6233266;28;20049;-83
2024/01/25 02:31:41;;;;;;;26.70;4.40;;;;;;;;;;6246852;28;20057;-83
2024/01/25 02:34:43;;;;;;;32.33;5.32;;;5.10;99.90;;;;;;6222459;28;20049;-82
2024/01/25 02:37:46;;;;;;;27.02;4.85;;;;;;;;;;6246545;28;20050;-82
2024/01/25 02:40:48;;;;;;;26.65;3.90;;;;;;;;;;6222553;28;20061;-83
2024/01/25 02:43:50;;;;;;;30.23;4.28;;;;;;;;;;6231016;28;20046;-83
2024/01/25 02:46:52;;;;;;;28.45;4.18;;;;;;;;;;6244374;28;20463;-84
2024/01/25 02:49:54;;;;;;;23.48;3.92;;;;;;;;;;6221751;28;20054;-83
2024/01/25 02:52:56;;;;;;;22.02;4.47;;;;;;;;;;6244317;28;20058;-83
2024/01/25 02:55:59;;;;;;;21.25;4.13;;;;;;;;;;6245203;28;20492;-83
2024/01/25 02:59:01;;;;;;;24.90;4.35;;;;;;;;;;6228264;28;20050;-83
2024/01/25 03:02:03;;;;;;;19.33;4.05;;;;;;;;;;6234556;28;20075;-83
2024/01/25 03:05:05;;;;;;;22.27;4.28;;;;;;;;;;6220586;28;20687;-83
2024/01/25 03:08:08;;;;;;;35.75;5.13;;;;;;;;;;6244769;28;20164;-83
2024/01/25 03:11:09;;;;;;;28.77;4.95;;;4.70;99.90;;;;;;6221429;28;20053;-83
2024/01/25 03:14:11;;;;;;;30.08;4.88;;;4.60;99.90;;;;;;6215426;28;20502;-83
2024/01/25 03:17:13;;;;;;;23.17;4.82;;;;;;;;;;6204974;28;20610;-82
2024/01/25 03:20:15;;;;;;;19.55;3.10;;;;;;;;;;6232199;28;20054;-83
2024/01/25 03:23:17;;;;;;;28.33;3.83;;;;;;;;;;6210068;28;20198;-82
2024/01/25 03:26:19;;;;;;;18.63;4.57;;;;;;;;;;6243775;28;20045;-83
2024/01/25 03:29:21;;;;;;;26.52;3.97;;;;;;;;;;6219148;28;20445;-83
2024/01/25 03:32:24;;;;;;;23.23;4.10;;;;;;;;;;6234076;28;20046;-82
2024/01/25 03:35:26;;;;;;;28.67;5.07;;;;;;;;;;6243901;28;20057;-82
2024/01/25 03:38:27;;;;;;;27.83;5.38;;;5.30;99.90;;;;;;6220458;28;20054;-82
2024/01/25 03:41:29;;;;;;;32.05;5.63;;;5.30;99.90;;;;;;6239112;28;20060;-82
2024/01/25 03:44:31;;;;;;;34.58;5.80;;;5.50;99.90;;;;;;6238360;28;20049;-83
2024/01/25 03:47:33;;;;;;;28.08;5.03;;;5.60;99.90;;;;;;6219975;28;20053;-82
2024/01/25 03:50:35;;;;;;;30.08;4.82;;;;;;;;;;6243854;28;20140;-82
2024/01/25 03:53:37;;;;;;;21.83;4.38;;;;;;;;;;6219679;28;20050;-82
2024/01/25 03:56:40;;;;;;;25.98;4.80;;;;;;;;;;6243805;28;20059;-82
2024/01/25 03:59:42;;;;;;;23.65;4.15;;;;;;;;;;6224677;28;20424;-82
2024/01/25 04:02:44;;;;;;;34.70;4.75;;;;;;;;;;6219406;28;20085;-82
2024/01/25 04:05:46;;;;;;;37.65;5.07;;;;;;;;;;6242336;28;20140;-81
2024/01/25 04:08:48;;;;;;;27.42;4.72;;;;;;;;;;6218393;28;20058;-82
2024/01/25 04:11:51;;;;;;;30.13;5.43;;;;;;;;;;6238626;28;20136;-83
2024/01/25 04:14:53;;;;;;;33.03;5.07;;;;;;;;;;6241562;28;20061;-84
2024/01/25 04:17:56;;;;;;;27.70;5.18;;;;;;;;;;6219588;28;20061;-83
2024/01/25 04:20:57;;;;;;;25.20;4.30;;;6.30;99.90;;;;;;6234876;28;20505;-84
2024/01/25 04:27:38;;;;;;;32.17;4.97;;;;;;;;;;6199785;28;20042;-82
2024/01/25 04:30:40;;;;;;;26.85;4.30;;;6.30;99.90;;;;;;6211815;28;20695;-84
2024/01/25 04:33:42;;;;;;;26.25;4.65;;;;;;;;;;6195132;28;20061;-82
2024/01/25 04:36:49;;;;;;;25.27;4.10;;;6.80;99.90;;;;;;6219157;28;20058;-83
2024/01/25 04:39:51;;;;;;;27.38;4.82;;;;;;;;;;6233953;28;20075;-82
2024/01/25 04:42:53;;;;;;;25.00;4.53;;;6.80;99.90;;;;;;6237856;28;20417;-83
2024/01/25 04:45:55;;;;;;;27.50;4.15;;;6.70;99.90;;;;;;6218857;28;20050;-84
2024/01/25 04:48:57;;;;;;;26.83;4.38;;;6.80;99.90;;;;;;6242908;28;20060;-83
2024/01/25 04:51:59;;;;;;;25.73;4.35;;;7.30;99.90;;;;;;6200446;28;20070;-83
2024/01/25 04:55:00;;;;;;;28.35;4.63;;;6.90;99.90;;;;;;6245052;28;20053;-84
2024/01/25 04:58:02;;;;;;;30.70;4.75;;;7.30;99.90;;;;;;6222910;28;20086;-83
2024/01/25 05:01:06;;;;;;;31.98;5.35;;;;;;;;;;6228065;28;20061;-83
2024/01/25 05:04:09;;;;;;;28.23;5.13;;;;;;;;;;6248249;28;20078;-83
2024/01/25 05:07:11;;;;;;;28.80;4.25;;;7.20;99.90;;;;;;6223961;28;20046;-83
2024/01/25 05:10:13;;;;;;;20.80;4.13;;;;;;;;;;6226498;28;20072;-85
2024/01/25 05:13:15;;;;;;;23.35;4.60;;;;;;;;;;6236115;28;20196;-82
2024/01/25 05:16:18;;;;;;;23.90;4.35;;;;;;;;;;6248100;28;20049;-83
2024/01/25 05:19:20;;;;;;;32.05;4.88;;;;;;;;;;6223377;28;20493;-82
2024/01/25 05:22:23;;;;;;;35.28;5.13;;;;;;;;;;6245865;28;20049;-82
2024/01/25 05:25:26;;;;;;;27.08;4.50;;;;;;;;;;6223697;28;20140;-82
2024/01/25 05:28:28;;;;;;;27.48;4.15;;;;;;;;;;6230760;28;20054;-82
2024/01/25 05:31:30;;;;;;;25.58;4.45;;;;;;;;;;6246873;28;20057;-82
2024/01/25 05:34:33;;;;;;;33.17;5.00;;;;;;;;;;6223412;28;20551;-82
2024/01/25 05:37:36;;;;;;;22.67;4.45;;;;;;;;;;6246620;28;20057;-83
2024/01/25 05:40:37;;;;;;;28.20;4.40;;;7.80;99.90;;;;;;6223155;28;20046;-83
2024/01/25 05:43:39;;;;;;;27.00;4.88;;;7.80;99.90;;;;;;6232783;28;20061;-83
2024/01/25 05:46:40;;;;;;;28.05;5.03;;;7.80;99.90;;;;;;6246403;28;20050;-82
2024/01/25 05:49:42;;;;;;;32.72;5.03;;;7.80;99.90;;;;;;6221685;28;20062;-84
2024/01/25 05:52:44;;;;;;;40.05;5.82;;;7.80;99.90;;;;;;6210247;28;20056;-83
2024/01/25 05:55:45;;;;;;;33.47;5.45;;;7.90;99.90;;;;;;6244714;28;20064;-84
2024/01/25 05:58:47;;;;;;;33.42;5.30;;;7.90;99.90;;;;;;6231304;28;20210;-83
2024/01/25 06:01:49;;;;;;;34.00;5.60;;;8.00;99.90;;;;;;6242649;28;20064;-83
2024/01/25 06:04:51;;;;;;;40.35;6.28;;;8.20;99.90;;;;;;6220319;28;20501;-84
2024/01/25 06:07:53;;;;;;;27.95;5.82;;;8.20;99.90;;;;;;6244894;28;20068;-81
2024/01/25 06:10:55;;;;;;;32.38;5.95;;;8.30;99.90;;;;;;6221909;28;20046;-84
2024/01/25 06:13:56;;;;;;;29.98;6.10;;;8.40;99.90;;;;;;6229706;28;20072;-83
2024/01/25 06:16:58;;;;;;;32.65;6.38;;;8.50;99.90;;;;;;6244754;28;20057;-83
2024/01/25 06:20:00;;;;;;;33.47;5.93;;;8.50;99.90;;;;;;6220471;28;20057;-84
2024/01/25 06:23:02;;;;;;;36.67;6.15;;;8.60;99.90;;;;;;6216498;28;20445;-82
2024/01/25 06:26:04;;;;;;;30.83;6.00;;;8.60;99.90;;;;;;6245562;28;20049;-82
2024/01/25 06:29:05;;;;;;;27.65;5.95;;;8.70;99.90;;;;;;6212405;28;20057;-83
2024/01/25 06:32:07;;;;;;;29.77;6.75;;;8.70;99.90;;;;;;6224356;28;20084;-84
2024/01/25 06:35:14;;;;;;;28.42;5.85;;;8.80;99.90;;;;;;6213955;28;20054;-84
2024/01/25 06:38:16;;;;;;;26.52;5.45;;;8.80;99.90;;;;;;6243381;28;20057;-80
2024/01/25 06:41:17;;;;;;;22.65;5.25;;;8.80;99.90;;;;;;6219332;28;20058;-84
2024/01/25 06:44:19;;;;;;;25.38;5.53;;;8.90;99.90;;;;;;6241401;28;20046;-84
2024/01/25 06:47:21;;;;;;;20.98;5.15;;;9.00;99.90;;;;;;6220270;28;20057;-87
2024/01/25 06:50:24;;;;;;;22.98;4.85;;;9.00;99.90;;;;;;6243939;28;20154;-83
2024/01/25 06:53:26;;;;;;;22.08;5.63;;;9.10;99.90;;;;;;6220453;28;20065;-84
2024/01/25 06:56:28;;;;;;;20.58;4.78;;;9.10;99.90;;;;;;6243841;28;20049;-82
2024/01/25 06:59:30;;;;;;;22.52;4.40;;;9.10;99.90;;;;;;6219988;28;20208;-83
2024/01/25 07:02:32;;;;;;;17.13;4.15;;;9.00;99.90;;;;;;6243185;28;20065;-84
2024/01/25 07:05:35;;;;;;;10.77;3.17;;;9.10;99.90;;;;;;6220827;28;20062;-83
2024/01/25 07:08:37;;;;;;;12.48;3.08;;;9.00;99.90;;;;;;6243385;28;20063;-82
2024/01/25 07:11:38;;;;;;;19.25;2.90;;;9.10;99.90;;;;;;6220839;28;20060;-83
2024/01/25 07:14:40;;;;;;;15.95;3.55;;;9.10;99.90;;;;;;6243100;28;20136;-83
2024/01/25 07:17:42;;;;;;;13.82;3.47;;;9.20;99.90;;;;;;6219473;28;20489;-84
2024/01/25 07:20:44;;;;;;;11.35;2.85;;;9.20;99.90;;;;;;6243318;28;20054;-85
2024/01/25 07:23:46;;;;;;;13.57;3.30;;;9.20;99.90;;;;;;6219933;28;20133;-85
2024/01/25 07:26:48;;;;;;;13.13;2.80;;;9.20;99.90;;;;;;6243273;28;20049;-83
2024/01/25 07:29:49;;;;;;;14.15;3.15;;;9.20;99.90;;;;;;6214368;28;20058;-83
2024/01/25 07:32:51;;;;;;;17.75;4.00;;;9.30;99.90;;;;;;6242527;28;20624;-83
2024/01/25 07:35:53;;;;;;;14.73;3.50;;;9.30;99.90;;;;;;6219131;28;20120;-84
2024/01/25 07:38:54;;;;;;;12.35;3.28;;;9.30;99.90;;;;;;6243419;28;20058;-86
2024/01/25 07:41:56;;;;;;;12.55;3.22;;;9.20;99.90;;;;;;6218332;28;20060;-84
2024/01/25 07:44:58;;;;;;;12.82;3.00;;;9.30;99.90;;;;;;6241089;28;20433;-84
2024/01/25 07:47:59;;;;;;;12.95;3.00;;;9.30;99.90;;;;;;6220690;28;20057;-83
2024/01/25 07:51:15;;;;;;;12.95;3.20;;;9.40;99.90;;;;;;6196352;28;20058;-87
2024/01/25 07:54:17;;;;;;;12.35;3.00;;;9.40;99.90;;;;;;6242922;28;20424;-85
2024/01/25 07:57:19;;;;;;;11.07;2.80;;;9.40;99.90;;;;;;6222732;28;20447;-84
2024/01/25 08:00:20;;;;;;;11.40;2.90;;;9.40;99.90;;;;;;6241285;28;20056;-85
2024/01/25 08:03:22;;;;;;;11.60;2.60;;;9.40;99.90;;;;;;6219716;28;20080;-84
2024/01/25 08:06:24;;;;;;;7.05;2.28;;;9.50;99.90;;;;;;6242313;28;20525;-85
2024/01/25 08:09:25;;;;;;;8.82;2.30;;;9.40;99.90;;;;;;6219031;28;20080;-85
2024/01/25 08:12:27;;;;;;;9.50;2.70;;;9.40;99.90;;;;;;6240324;28;20049;-85
2024/01/25 08:15:29;;;;;;;8.23;2.13;;;9.30;99.90;;;;;;6218831;28;20061;-83
2024/01/25 08:18:31;;;;;;;8.38;1.90;;;9.40;99.90;;;;;;6209978;28;20132;-84
2024/01/25 08:21:35;;;;;;;6.47;1.58;;;9.40;99.90;;;;;;6258465;28;20096;-83
2024/01/25 08:24:37;;;;;;;6.15;1.80;;;9.40;99.90;;;;;;6219502;28;20568;-88
2024/01/25 08:27:42;;;;;;;4.38;1.38;;;9.40;99.90;;;;;;6238235;28;20072;-85
2024/01/25 08:30:44;;;;;;;4.78;1.38;;;9.50;99.90;;;;;;6218061;28;20053;-84
2024/01/25 08:33:47;;;;;;;3.25;1.10;;;9.50;99.90;;;;;;6243779;28;20123;-87
2024/01/25 08:36:49;;;;;;;4.20;1.52;;;9.60;99.90;;;;;;6217997;28;20050;-84
2024/01/25 08:39:51;;;;;;;3.88;1.40;;;9.60;99.90;;;;;;6243632;28;20053;-83
2024/01/25 08:42:53;;;;;;;6.55;2.00;;;9.80;99.90;;;;;;6233304;28;20504;-84
2024/01/25 08:45:55;;;;;;;6.82;1.88;;;9.80;99.90;;;;;;6217512;28;20054;-84
2024/01/25 08:48:57;;;;;;;6.22;2.25;;;9.90;99.90;;;;;;6242973;28;20049;-84
2024/01/25 08:51:59;;;;;;;4.95;2.10;;;9.90;99.90;;;;;;6218173;28;20053;-86
2024/01/25 08:55:01;;;;;;;9.77;3.20;;;10.00;99.90;;;;;;6243392;28;20053;-86
2024/01/25 08:58:03;;;;;;;7.55;3.35;;;10.00;99.90;;;;;;6222365;28;20058;-85
2024/01/25 09:01:05;;;;;;;5.65;3.10;;;10.00;99.90;;;;;;6237992;28;20065;-89
2024/01/25 09:04:07;;;;;;;8.15;3.47;;;10.10;99.90;;;;;;6223980;28;20058;-93
2024/01/25 09:07:09;;;;;;;7.18;3.10;;;10.10;99.90;;;;;;6252934;23;20074;-90
2024/01/25 09:10:11;;;;;;;7.95;3.42;;;10.10;99.90;;;;;;6224754;28;20144;-88
2024/01/25 09:13:13;;;;;;;9.57;3.53;;;10.20;99.90;;;;;;6210653;28;20081;-85
2024/01/25 09:16:15;;;;;;;7.95;3.05;;;10.20;99.90;;;;;;6195608;28;20086;-85
2024/01/25 09:19:17;;;;;;;7.07;3.42;;;10.20;99.90;;;;;;6194482;28;20069;-84
2024/01/25 09:22:19;;;;;;;7.85;3.25;;;10.30;99.90;;;;;;6189151;28;20082;-87
2024/01/25 09:25:21;;;;;;;9.27;3.33;;;10.40;99.90;;;;;;6186733;28;20514;-86
2024/01/25 09:28:23;;;;;;;7.28;3.72;;;10.40;99.90;;;;;;6186748;28;20054;-87
2024/01/25 09:31:25;;;;;;;7.05;2.60;;;10.50;99.90;;;;;;6193773;28;20054;-86
2024/01/25 09:34:27;;;;;;;8.80;2.90;;;10.70;99.90;;;;;;6169365;28;20513;-87
2024/01/25 09:37:31;;;;;;;8.85;2.60;;;10.70;99.90;;;;;;6217039;28;20072;-87
2024/01/25 09:40:35;;;;;;;8.05;2.75;;;10.80;99.90;;;;;;6196190;28;20505;-84
2024/01/25 09:43:37;;;;;;;7.00;2.80;;;10.90;99.90;;;;;;6210088;28;20062;-84
2024/01/25 09:46:39;;;;;;;9.02;2.83;;;10.90;99.90;;;;;;6220872;28;20057;-82
2024/01/25 09:49:42;;;;;;;7.07;2.58;;;11.10;99.90;;;;;;6197859;28;20628;-88
2024/01/25 09:52:48;;;;;;;5.47;2.50;;;11.10;99.90;;;;;;6200042;28;20138;-85
2024/01/25 09:55:50;;;;;;;9.25;2.28;;;11.30;99.90;;;;;;6172460;28;20128;-83
2024/01/25 09:58:52;;;;;;;8.30;3.00;;;11.30;99.90;;;;;;6222173;28;20156;-84
2024/01/25 10:01:54;;;;;;;9.52;2.90;;;11.40;99.90;;;;;;6223668;28;20050;-89
2024/01/25 10:04:56;;;;;;;7.20;2.30;;;11.50;99.90;;;;;;6201104;28;20069;-87
2024/01/25 10:08:01;;;;;;;8.88;2.20;;;11.60;99.90;;;;;;6224092;28;20058;-89
2024/01/25 10:11:06;;;;;;;5.10;2.00;;;11.60;99.90;;;;;;6175051;28;20058;-88
2024/01/25 10:14:11;;;;;;;8.48;1.95;;;;;;;;;;6203089;28;20547;-86
2024/01/25 10:17:13;;;;;;;7.05;1.95;;;11.80;99.90;;;;;;6174895;28;20105;-93
2024/01/25 10:20:15;;;;;;;4.32;1.60;;;11.90;99.90;;;;;;6174800;28;20495;-92
2024/01/25 10:23:17;;;;;;;6.80;1.67;;;12.00;99.90;;;;;;6190192;28;20438;-84
2024/01/25 10:26:19;;;;;;;5.40;1.80;;;12.10;99.90;;;;;;6220667;28;20065;-83
2024/01/25 10:29:21;;;;;;;5.70;1.88;;;12.10;99.90;;;;;;6199687;28;20050;-92
2024/01/25 10:32:23;;;;;;;6.50;2.13;;;12.10;99.90;;;;;;6227351;28;20058;-92
2024/01/25 10:35:24;;;;;;;6.43;1.65;;;12.20;99.90;;;;;;6199681;28;20501;-91
2024/01/25 10:38:27;;;;;;;6.97;1.55;;;12.30;99.90;;;;;;6226193;28;20080;-85
2024/01/25 10:41:28;;;;;;;4.55;1.27;;;12.20;99.90;;;;;;6200682;28;20062;-90
2024/01/25 10:44:30;;;;;;;6.80;1.30;;;12.10;99.90;;;;;;6219369;28;20053;-86
2024/01/25 10:47:35;;;;;;;5.65;1.60;;;12.20;99.90;;;;;;6197388;28;20137;-89
2024/01/25 10:50:39;;;;;;;12.57;1.90;;;12.10;99.90;;;;;;6212497;28;20058;-84
2024/01/25 10:53:41;;;;;;;7.20;1.55;;;12.20;99.90;;;;;;6236582;28;20452;-87
2024/01/25 10:56:42;;;;;;;7.13;1.38;;;12.20;99.90;;;;;;6195875;28;20422;-88
2024/01/25 10:59:44;;;;;;;7.20;2.20;;;12.30;99.90;;;;;;6206316;28;20050;-89
2024/01/25 11:02:46;;;;;;;7.30;1.73;;;12.30;99.90;;;;;;6229148;28;20062;-83
2024/01/25 11:05:48;;;;;;;7.75;1.73;;;12.30;99.90;;;;;;6204461;28;20076;-86
2024/01/25 11:08:50;;;;;;;9.57;2.10;;;12.30;99.90;;;;;;6197230;28;20050;-93
2024/01/25 11:11:52;;;;;;;8.35;2.33;;;12.30;99.90;;;;;;6220467;28;20057;-91
2024/01/25 11:14:54;;;;;;;9.00;2.40;;;12.30;99.90;;;;;;6195817;28;20403;-88
2024/01/25 11:17:56;;;;;;;11.55;2.97;;;12.20;99.90;;;;;;6221293;28;20592;-85
2024/01/25 11:20:57;;;;;;;10.95;3.05;;;12.20;99.90;;;;;;6201351;28;20050;-90
2024/01/25 11:24:13;;;;;;;9.63;3.22;;;12.10;99.90;;;;;;6203539;28;20051;-90
2024/01/25 11:27:15;;;;;;;11.90;3.08;;;12.20;99.90;;;;;;6222498;28;20076;-90
2024/01/25 11:30:16;;;;;;;11.43;2.78;;;12.20;99.90;;;;;;6194756;28;20057;-86
2024/01/25 11:33:19;;;;;;;11.60;3.10;;;12.40;99.90;;;;;;6189137;28;20063;-92
2024/01/25 11:36:22;;;;;;;16.88;3.53;;;12.50;99.90;;;;;;6222654;28;20551;-89
2024/01/25 11:39:24;;;;;;;11.55;2.17;;;12.80;99.90;;;;;;6196389;28;20069;-85
2024/01/25 11:42:25;;;;;;;11.20;2.30;;;13.10;99.90;;;;;;6219973;28;20452;-85
2024/01/25 11:45:27;;;;;;;10.07;2.40;;;13.50;99.90;;;;;;6194472;28;20061;-92
2024/01/25 11:48:29;;;;;;;8.02;2.00;;;14.00;99.90;;;;;;6189493;28;20054;-93
2024/01/25 11:51:31;;;;;;;9.23;2.72;;;14.10;99.90;;;;;;6222749;28;20359;-92
2024/01/25 11:54:33;;;;;;;9.63;2.15;;;14.10;99.90;;;;;;6221464;28;20058;-91
2024/01/25 11:57:34;;;;;;;14.10;2.60;;;14.10;99.90;;;;;;6197791;28;20057;-88
2024/01/25 12:00:37;;;;;;;8.65;2.28;;;14.10;99.90;;;;;;6219174;28;20441;-87
2024/01/25 12:03:39;;;;;;;10.43;2.15;;;14.20;99.90;;;;;;6171671;28;20410;-85
2024/01/25 12:06:41;;;;;;;6.95;1.88;;;14.30;99.90;;;;;;6216703;28;20064;-81
2024/01/25 12:09:42;;;;;;;13.55;2.30;;;14.20;99.90;;;;;;6193699;28;20077;-86
2024/01/25 12:12:45;;;;;;;8.25;1.95;;;14.30;99.90;;;;;;6214696;28;20418;-81
2024/01/25 12:15:47;;;;;;;8.27;1.80;;;14.30;99.90;;;;;;6192302;28;20104;-83
2024/01/25 12:18:49;;;;;;;10.45;1.90;;;14.30;99.90;;;;;;6199371;28;20069;-87
2024/01/25 12:21:52;;;;;;;9.32;2.00;;;14.10;99.90;;;;;;6203652;28;20057;-88
2024/01/25 12:24:55;;;;;;;11.82;2.20;;;14.00;99.90;;;;;;6222942;28;20464;-88
2024/01/25 12:28:01;;;;;;;7.45;2.33;;;13.70;99.90;;;;;;6185155;28;20057;-90
2024/01/25 12:31:06;;;;;;;7.50;2.20;;;13.60;99.90;;;;;;6222637;28;20060;-90
2024/01/25 12:34:08;;;;;;;8.45;2.40;;;13.60;99.90;;;;;;6198567;28;20058;-86
2024/01/25 12:37:10;;;;;;;9.90;2.78;;;13.70;99.90;;;;;;6201397;28;20632;-86
2024/01/25 12:40:12;;;;;;;14.65;2.63;;;13.80;99.90;;;;;;6219994;28;20428;-90
2024/01/25 12:43:13;;;;;;;11.15;2.55;;;14.00;99.90;;;;;;6200854;28;20097;-88
2024/01/25 12:46:15;;;;;;;13.02;3.00;;;14.00;99.90;;;;;;6211886;28;20170;-87
2024/01/25 12:49:28;;;;;;;8.30;2.88;;;13.90;99.90;;;;;;6199695;28;20073;-87
2024/01/25 12:52:30;;;;;;;9.55;2.00;;;13.80;99.90;;;;;;6195512;28;20057;-89
2024/01/25 12:55:33;;;;;;;12.32;2.40;;;13.70;99.90;;;;;;6220354;28;20416;-93
2024/01/25 12:58:34;;;;;;;10.50;2.72;;;13.60;99.90;;;;;;6206715;28;20112;-89
2024/01/25 13:01:37;;;;;;;13.20;3.00;;;13.40;99.90;;;;;;6207738;28;20092;-89
2024/01/25 13:04:39;;;;;;;16.13;3.25;;;13.40;99.90;;;;;;6196805;28;20050;-91
2024/01/25 13:07:42;;;;;;;12.07;2.90;;;13.30;99.90;;;;;;6198762;28;20120;-86
2024/01/25 13:10:44;;;;;;;13.98;3.00;;;13.30;99.90;;;;;;6220199;28;20046;-92
2024/01/25 13:13:45;;;;;;;9.95;2.75;;;13.30;99.90;;;;;;6209065;28;20046;-90
2024/01/25 13:16:47;;;;;;;16.10;3.40;;;13.40;99.90;;;;;;6226375;28;20058;-91
2024/01/25 13:19:49;;;;;;;11.45;3.22;;;13.30;99.90;;;;;;6210683;28;20070;-94
2024/01/25 13:26:11;;;;;;;11.65;3.00;;;13.50;99.90;;;;;;6338370;23;20053;-91
2024/01/25 13:29:13;;;;;;;14.52;3.80;;;13.80;99.90;;;;;;6222744;28;20056;-93
2024/01/25 13:32:15;;;;;;;9.35;2.80;;;13.80;99.90;;;;;;6231788;28;20473;-93
2024/01/25 13:38:45;;;;;;;11.27;2.80;;;14.10;99.90;;;;;;6193545;28;20533;-93
2024/01/25 13:41:51;;;;;;;12.23;2.50;;;14.10;99.90;;;;;;6228879;28;20054;-94
2024/01/25 13:45:07;;;;;;;8.63;2.10;;;14.20;99.90;;;;;;6233315;28;20065;-94
2024/01/25 13:48:09;;;;;;;7.25;1.80;;;14.30;99.90;;;;;;6236677;28;20220;-93
2024/01/25 13:51:11;;;;;;;8.88;2.30;;;14.40;99.90;;;;;;6229621;28;20111;-88
2024/01/25 13:54:12;;;;;;;8.68;1.90;;;14.60;99.90;;;;;;6231165;28;20504;-87
2024/01/25 13:57:15;;;;;;;9.10;2.17;;;14.80;99.90;;;;;;6233013;28;20136;-90
2024/01/25 14:00:17;;;;;;;8.55;1.83;;;14.70;99.90;;;;;;6236857;28;20050;-94
2024/01/25 14:03:19;;;;;;;6.60;1.38;;;14.50;99.90;;;;;;6240204;28;20040;-93
2024/01/25 14:06:22;;;;;;;7.60;2.53;;;14.40;99.90;;;;;;6225441;28;20527;-91
2024/01/25 14:09:24;;;;;;;6.97;1.60;;;14.40;99.90;;;;;;6230610;28;20127;-94
2024/01/25 14:12:26;;;;;;;8.35;1.60;;;14.30;99.90;;;;;;6226963;28;20100;-90
2024/01/25 14:15:28;;;;;;;8.52;1.52;;;14.10;99.90;;;;;;6225005;28;20512;-84
2024/01/25 14:18:30;;;;;;;9.35;1.88;;;13.70;99.90;;;;;;6225608;28;20049;-88
2024/01/25 14:21:32;;;;;;;7.90;2.05;;;13.40;99.90;;;;;;6222523;28;20069;-82
2024/01/25 14:24:34;;;;;;;9.25;2.08;;;13.30;99.90;;;;;;6220531;28;20084;-83
2024/01/25 14:27:36;;;;;;;8.18;1.88;;;13.10;99.90;;;;;;6223500;28;20049;-80
2024/01/25 14:30:39;;;;;;;6.38;1.70;;;13.10;99.90;;;;;;6224152;28;20469;-89
2024/01/25 14:33:41;;;;;;;8.68;2.13;;;13.10;99.90;;;;;;6176959;28;20050;-81
2024/01/25 14:36:46;;;;;;;7.40;2.22;;;13.10;99.90;;;;;;6232750;28;20520;-85
2024/01/25 14:39:48;;;;;;;8.25;2.00;;;13.10;99.90;;;;;;6222333;28;20061;-82
2024/01/25 14:43:09;;;;;;;9.48;2.08;;;13.20;99.90;;;;;;6185117;28;20053;-84
2024/01/25 14:46:11;;;;;;;9.82;2.10;;;13.20;99.90;;;;;;6220964;28;20159;-84
2024/01/25 14:49:12;;;;;;;7.68;2.38;;;13.20;99.90;;;;;;6221932;28;20161;-84
2024/01/25 14:52:14;;;;;;;12.32;2.22;;;13.10;99.90;;;;;;6222516;28;20118;-85
2024/01/25 14:55:19;;;;;;;6.13;2.10;;;13.10;99.90;;;;;;6221579;28;20056;-84
2024/01/25 14:58:24;;;;;;;7.30;2.10;;;13.10;99.90;;;;;;6220541;28;20099;-84
2024/01/25 15:01:29;;;;;;;7.20;2.63;;;13.00;99.90;;;;;;6203777;28;20058;-90
2024/01/25 15:04:31;;;;;;;6.65;2.10;;;13.10;99.90;;;;;;6229308;28;20060;-92
2024/01/25 15:07:33;;;;;;;7.60;2.20;;;13.00;99.90;;;;;;6224686;28;20070;-89
2024/01/25 15:10:35;;;;;;;11.55;2.35;;;12.90;99.90;;;;;;6227759;28;20061;-81
2024/01/25 15:13:37;;;;;;;10.30;2.70;;;12.90;99.90;;;;;;6225661;28;20061;-87
2024/01/25 15:16:39;;;;;;;9.43;1.95;;;12.80;99.90;;;;;;6228954;28;20050;-88
2024/01/25 15:19:40;;;;;;;8.48;1.95;;;12.80;99.90;;;;;;6224948;28;20485;-81
2024/01/25 15:22:42;;;;;;;9.77;2.33;;;12.80;99.90;;;;;;6221885;28;20084;-82
2024/01/25 15:25:44;;;;;;;6.45;2.00;;;12.80;99.90;;;;;;6219986;28;20414;-80
2024/01/25 15:28:47;;;;;;;9.38;1.90;;;12.70;99.90;;;;;;6217004;28;20065;-82
2024/01/25 15:31:48;;;;;;;10.15;1.92;;;12.60;99.90;;;;;;6219397;28;20068;-81
2024/01/25 15:34:50;;;;;;;8.95;1.85;;;12.50;99.90;;;;;;6219618;28;20045;-81
2024/01/25 15:37:52;;;;;;;8.40;2.10;;;12.40;99.90;;;;;;6218694;28;20053;-81
2024/01/25 15:40:54;;;;;;;5.03;1.90;;;12.40;99.90;;;;;;6219411;28;20057;-82
2024/01/25 15:43:55;;;;;;;7.45;2.17;;;12.30;99.90;;;;;;6217262;28;20458;-82
2024/01/25 15:46:57;;;;;;;6.47;1.90;;;12.30;99.90;;;;;;6221233;28;20097;-82
2024/01/25 15:49:59;;;;;;;7.45;1.92;;;12.30;99.90;;;;;;6218261;28;20050;-80
2024/01/25 15:53:00;;;;;;;6.88;1.88;;;12.30;99.90;;;;;;6219830;28;20054;-82
2024/01/25 15:56:02;;;;;;;6.03;2.00;;;12.20;99.90;;;;;;6219256;28;20520;-82
2024/01/25 15:59:04;;;;;;;9.93;1.80;;;12.10;99.90;;;;;;6213768;28;20072;-82
2024/01/25 16:02:06;;;;;;;7.22;1.92;;;12.10;99.90;;;;;;6218013;28;20425;-81
2024/01/25 16:05:07;;;;;;;6.90;2.00;;;12.10;99.90;;;;;;6219457;28;20065;-82
2024/01/25 16:08:09;;;;;;;7.13;1.73;;;12.10;99.90;;;;;;6219337;28;20107;-82
2024/01/25 16:11:11;;;;;;;5.28;1.60;;;12.10;99.90;;;;;;6219117;28;20057;-82
2024/01/25 16:14:13;;;;;;;8.80;2.00;;;12.10;99.90;;;;;;6216475;28;20050;-82
2024/01/25 16:17:15;;;;;;;7.93;1.83;;;12.10;99.90;;;;;;6218956;28;20074;-82